ADDS TAF Board (Experimental) INFO Settings
IDs: Format: Expanded Condensed

KSAN - San Diego Intl Arpt, CA, US

Issued at 1130 UTC 30 May 2015
Updated at: 1426 UTC 30 May 2015
Time1351Z 30/15Z 30/16Z 30/17Z 30/18Z 30/19Z 30/20Z 30/21Z 30/22Z 30/23Z 31/00Z 31/01Z 31/02Z 31/03Z
Type OBS PRVL PRVL PRVL PRVL PRVL PRVL PRVL PRVL PRVL PRVL PRVL PRVL PRVL
VIS 7 5 5 >6 >6 >6 >6 >6 >6 >6 >6 >6 >6 >6
CIG 11 10 10 -- -- -- -- -- -- -- -- -- -- --
Cover OVC OVC OVC SCT SCT SCT FEW FEW FEW FEW FEW FEW SCT SCT
FltCat MVFR MVFR MVFR VFR VFR VFR VFR VFR VFR VFR VFR VFR VFR VFR
WX -- BR BR -- -- -- -- -- -- -- -- -- -- --
WDir 290 VRB VRB 270 270 270 270 270 270 270 270 270 VRB VRB
WSpd 5 4 4 7 7 7 10 10 10 10 10 10 5 5
WGst -- -- -- -- -- -- -- -- -- -- -- -- -- --
R09/27
XWnd 0 VRB VRB -2 -2 -2 -3 -3 -3 -3 -3 -3 VRB VRB
HWnd -5 VRB VRB -7 -7 -7 -10 -10 -10 -10 -10 -10 VRB VRB

NOTE: TEMPO conditions in [brackets]. Keep in mind TEMPO conditions might be better (lower impact) than prevailing conditions.

Raw TAF
KSAN 301130Z 3012/3118 VRB04KT 5SM BR OVC010
  FM301700 27007KT P6SM SCT010
  FM302000 27010KT P6SM FEW010
  FM310200 VRB05KT P6SM SCT010
  FM310500 VRB04KT 4SM BR OVC008
  FM311500 25003KT 6SM BR SCT015


Raw METAR
KSAN 301351Z 29005KT 7SM OVC011 17/13 A2995 RMK AO2 SLP141 T01720133 $
KSAN 301251Z 01003KT 9SM OVC011 17/13 A2993 RMK AO2 SLP135 T01670133 $
KSAN 301151Z 00000KT 9SM OVC011 17/13 A2992 RMK AO2 SLP130 T01720133 10172 20167 56007 $

METAR Board
Radar Display
Forecast Discussion

TAF Board Legend

Potential Impact
Threat None Slight Moderate High
Visibility (sm) ≥5.1 5.1>X≥3 3>X≥1 <1
Ceiling (100 ft) ≥30.1 30.1>X≥10 10>X≥5 <5
Wind Speed (kt) <10 10≤X<20 20≤X<30 ≥30
Wind Gust (kt) <15 15≤X<25 25≤X<35 ≥35
Weather No Wx Reported VCTS,-TS,-FZRA,SN TS,FZRA +TS,+FZRA,+SN